sensor_id;sensor_type;location;lat;lon;timestamp;temperature;humidity
26503;DHT22;14177;51.520;6.764;2023-02-19T00:01:23;10.70;99.90
26503;DHT22;14177;51.520;6.764;2023-02-19T00:04:02;10.70;99.90
26503;DHT22;14177;51.520;6.764;2023-02-19T00:06:50;10.80;99.90
26503;DHT22;14177;51.520;6.764;2023-02-19T00:09:18;10.70;99.90
26503;DHT22;14177;51.520;6.764;2023-02-19T00:11:46;10.70;99.90
26503;DHT22;14177;51.520;6.764;2023-02-19T00:14:16;10.70;99.90
26503;DHT22;14177;51.520;6.764;2023-02-19T00:16:47;10.70;99.90
26503;DHT22;14177;51.520;6.764;2023-02-19T00:19:17;10.70;99.90
26503;DHT22;14177;51.520;6.764;2023-02-19T00:21:47;10.70;99.90
26503;DHT22;14177;51.520;6.764;2023-02-19T00:24:20;10.70;99.90
26503;DHT22;14177;51.520;6.764;2023-02-19T00:26:48;10.60;99.90
26503;DHT22;14177;51.520;6.764;2023-02-19T00:29:18;10.60;99.90
26503;DHT22;14177;51.520;6.764;2023-02-19T00:31:48;10.60;99.90
26503;DHT22;14177;51.520;6.764;2023-02-19T00:34:17;10.60;99.90
26503;DHT22;14177;51.520;6.764;2023-02-19T00:36:44;10.60;99.90
26503;DHT22;14177;51.520;6.764;2023-02-19T00:39:14;10.60;99.90
26503;DHT22;14177;51.520;6.764;2023-02-19T00:41:44;10.60;99.90
26503;DHT22;14177;51.520;6.764;2023-02-19T00:44:13;10.60;99.90
26503;DHT22;14177;51.520;6.764;2023-02-19T00:46:43;10.60;99.90
26503;DHT22;14177;51.520;6.764;2023-02-19T00:49:19;10.60;99.90
26503;DHT22;14177;51.520;6.764;2023-02-19T00:51:49;10.60;99.90
26503;DHT22;14177;51.520;6.764;2023-02-19T00:54:18;10.60;99.90
26503;DHT22;14177;51.520;6.764;2023-02-19T00:56:45;10.60;99.90
26503;DHT22;14177;51.520;6.764;2023-02-19T00:59:12;10.60;99.90
26503;DHT22;14177;51.520;6.764;2023-02-19T01:01:40;10.60;99.90
26503;DHT22;14177;51.520;6.764;2023-02-19T01:04:09;10.60;99.90
26503;DHT22;14177;51.520;6.764;2023-02-19T01:06:36;10.60;99.90
26503;DHT22;14177;51.520;6.764;2023-02-19T01:09:04;10.60;99.90
26503;DHT22;14177;51.520;6.764;2023-02-19T01:11:31;10.60;99.90
26503;DHT22;14177;51.520;6.764;2023-02-19T01:13:59;10.60;99.90
26503;DHT22;14177;51.520;6.764;2023-02-19T01:16:27;10.60;99.90
26503;DHT22;14177;51.520;6.764;2023-02-19T01:18:55;10.60;99.90
26503;DHT22;14177;51.520;6.764;2023-02-19T01:21:25;10.60;99.90
26503;DHT22;14177;51.520;6.764;2023-02-19T01:23:54;10.60;99.90
26503;DHT22;14177;51.520;6.764;2023-02-19T01:26:27;10.60;99.90
26503;DHT22;14177;51.520;6.764;2023-02-19T01:28:57;10.60;99.90
26503;DHT22;14177;51.520;6.764;2023-02-19T01:31:25;10.60;99.90
26503;DHT22;14177;51.520;6.764;2023-02-19T01:33:58;10.60;99.90
26503;DHT22;14177;51.520;6.764;2023-02-19T01:36:31;10.50;99.90
26503;DHT22;14177;51.520;6.764;2023-02-19T01:39:01;10.50;99.90
26503;DHT22;14177;51.520;6.764;2023-02-19T01:41:33;10.50;99.90
26503;DHT22;14177;51.520;6.764;2023-02-19T01:46:39;10.50;99.90
26503;DHT22;14177;51.520;6.764;2023-02-19T01:52:05;10.50;99.90
26503;DHT22;14177;51.520;6.764;2023-02-19T01:54:42;10.40;99.90
26503;DHT22;14177;51.520;6.764;2023-02-19T01:57:18;10.40;99.90
26503;DHT22;14177;51.520;6.764;2023-02-19T01:59:50;10.40;99.90
26503;DHT22;14177;51.520;6.764;2023-02-19T02:02:21;10.40;99.90
26503;DHT22;14177;51.520;6.764;2023-02-19T02:04:51;10.40;99.90
26503;DHT22;14177;51.520;6.764;2023-02-19T02:07:18;10.40;99.90
26503;DHT22;14177;51.520;6.764;2023-02-19T02:10:05;10.30;99.90
26503;DHT22;14177;51.520;6.764;2023-02-19T02:12:49;10.30;99.90
26503;DHT22;14177;51.520;6.764;2023-02-19T02:15:18;10.30;99.90
26503;DHT22;14177;51.520;6.764;2023-02-19T02:36:38;10.30;99.90
26503;DHT22;14177;51.520;6.764;2023-02-19T02:39:17;10.30;99.90
26503;DHT22;14177;51.520;6.764;2023-02-19T02:41:50;10.30;99.90
26503;DHT22;14177;51.520;6.764;2023-02-19T02:44:46;10.30;99.90
26503;DHT22;14177;51.520;6.764;2023-02-19T02:47:45;10.30;99.90
26503;DHT22;14177;51.520;6.764;2023-02-19T02:50:23;10.30;99.90
26503;DHT22;14177;51.520;6.764;2023-02-19T02:52:58;10.40;99.90
26503;DHT22;14177;51.520;6.764;2023-02-19T02:55:51;10.30;99.90
26503;DHT22;14177;51.520;6.764;2023-02-19T02:58:22;10.40;99.90
26503;DHT22;14177;51.520;6.764;2023-02-19T03:00:58;10.30;99.90
26503;DHT22;14177;51.520;6.764;2023-02-19T03:03:50;10.30;99.90
26503;DHT22;14177;51.520;6.764;2023-02-19T03:06:23;10.30;99.90
26503;DHT22;14177;51.520;6.764;2023-02-19T03:09:06;10.30;99.90
26503;DHT22;14177;51.520;6.764;2023-02-19T03:11:40;10.30;99.90
26503;DHT22;14177;51.520;6.764;2023-02-19T03:14:35;10.30;99.90
26503;DHT22;14177;51.520;6.764;2023-02-19T03:17:35;10.30;99.90
26503;DHT22;14177;51.520;6.764;2023-02-19T03:20:35;10.30;99.90
26503;DHT22;14177;51.520;6.764;2023-02-19T03:23:08;10.30;99.90
26503;DHT22;14177;51.520;6.764;2023-02-19T03:25:37;10.30;99.90
26503;DHT22;14177;51.520;6.764;2023-02-19T03:28:34;10.30;99.90
26503;DHT22;14177;51.520;6.764;2023-02-19T03:31:26;10.30;99.90
26503;DHT22;14177;51.520;6.764;2023-02-19T03:34:02;10.30;99.90
26503;DHT22;14177;51.520;6.764;2023-02-19T03:36:44;10.20;99.90
26503;DHT22;14177;51.520;6.764;2023-02-19T03:39:19;10.30;99.90
26503;DHT22;14177;51.520;6.764;2023-02-19T03:42:09;10.20;99.90
26503;DHT22;14177;51.520;6.764;2023-02-19T03:55:11;10.20;99.90
26503;DHT22;14177;51.520;6.764;2023-02-19T03:58:11;10.10;99.90
26503;DHT22;14177;51.520;6.764;2023-02-19T04:00:52;10.10;99.90
26503;DHT22;14177;51.520;6.764;2023-02-19T04:06:14;10.10;99.90
26503;DHT22;14177;51.520;6.764;2023-02-19T04:08:56;10.10;99.90
26503;DHT22;14177;51.520;6.764;2023-02-19T04:11:27;10.10;99.90
26503;DHT22;14177;51.520;6.764;2023-02-19T04:16:36;10.00;99.90
26503;DHT22;14177;51.520;6.764;2023-02-19T04:19:10;10.10;99.90
26503;DHT22;14177;51.520;6.764;2023-02-19T04:21:41;10.10;99.90
26503;DHT22;14177;51.520;6.764;2023-02-19T04:24:13;10.00;99.90
26503;DHT22;14177;51.520;6.764;2023-02-19T04:26:45;10.00;99.90
26503;DHT22;14177;51.520;6.764;2023-02-19T04:29:12;10.00;99.90
26503;DHT22;14177;51.520;6.764;2023-02-19T04:31:39;10.00;99.90
26503;DHT22;14177;51.520;6.764;2023-02-19T04:34:06;10.00;99.90
26503;DHT22;14177;51.520;6.764;2023-02-19T04:36:33;10.00;99.90
26503;DHT22;14177;51.520;6.764;2023-02-19T04:39:00;10.00;99.90
26503;DHT22;14177;51.520;6.764;2023-02-19T04:41:30;9.90;99.90
26503;DHT22;14177;51.520;6.764;2023-02-19T04:43:57;9.90;99.90
26503;DHT22;14177;51.520;6.764;2023-02-19T04:46:24;10.00;99.90
26503;DHT22;14177;51.520;6.764;2023-02-19T04:48:51;9.90;99.90
26503;DHT22;14177;51.520;6.764;2023-02-19T04:51:18;10.00;99.90
26503;DHT22;14177;51.520;6.764;2023-02-19T04:53:45;9.90;99.90
26503;DHT22;14177;51.520;6.764;2023-02-19T04:56:14;9.90;99.90
26503;DHT22;14177;51.520;6.764;2023-02-19T04:58:43;9.90;99.90
26503;DHT22;14177;51.520;6.764;2023-02-19T05:01:11;9.90;99.90
26503;DHT22;14177;51.520;6.764;2023-02-19T05:03:39;9.90;99.90
26503;DHT22;14177;51.520;6.764;2023-02-19T05:06:08;9.80;99.90
26503;DHT22;14177;51.520;6.764;2023-02-19T05:08:38;9.90;99.90
26503;DHT22;14177;51.520;6.764;2023-02-19T05:11:07;9.80;99.90
26503;DHT22;14177;51.520;6.764;2023-02-19T05:13:38;9.90;99.90
26503;DHT22;14177;51.520;6.764;2023-02-19T05:16:10;9.90;99.90
26503;DHT22;14177;51.520;6.764;2023-02-19T05:18:43;9.80;99.90
26503;DHT22;14177;51.520;6.764;2023-02-19T05:21:12;9.80;99.90
26503;DHT22;14177;51.520;6.764;2023-02-19T05:23:40;9.80;99.90
26503;DHT22;14177;51.520;6.764;2023-02-19T05:26:16;9.80;99.90
26503;DHT22;14177;51.520;6.764;2023-02-19T05:28:48;9.80;99.90
26503;DHT22;14177;51.520;6.764;2023-02-19T05:31:17;9.80;99.90
26503;DHT22;14177;51.520;6.764;2023-02-19T05:33:45;9.80;99.90
26503;DHT22;14177;51.520;6.764;2023-02-19T05:36:17;9.80;99.90
26503;DHT22;14177;51.520;6.764;2023-02-19T05:38:46;9.80;99.90
26503;DHT22;14177;51.520;6.764;2023-02-19T05:41:18;9.80;99.90
26503;DHT22;14177;51.520;6.764;2023-02-19T05:43:47;9.80;99.90
26503;DHT22;14177;51.520;6.764;2023-02-19T05:46:18;9.80;99.90
26503;DHT22;14177;51.520;6.764;2023-02-19T05:48:47;9.80;99.90
26503;DHT22;14177;51.520;6.764;2023-02-19T05:51:17;9.80;99.90
26503;DHT22;14177;51.520;6.764;2023-02-19T05:53:46;9.80;99.90
26503;DHT22;14177;51.520;6.764;2023-02-19T05:58:59;9.80;99.90
26503;DHT22;14177;51.520;6.764;2023-02-19T06:01:34;9.70;99.90
26503;DHT22;14177;51.520;6.764;2023-02-19T06:04:01;9.70;99.90
26503;DHT22;14177;51.520;6.764;2023-02-19T06:06:29;9.70;99.90
26503;DHT22;14177;51.520;6.764;2023-02-19T06:08:56;9.70;99.90
26503;DHT22;14177;51.520;6.764;2023-02-19T06:11:24;9.70;99.90
26503;DHT22;14177;51.520;6.764;2023-02-19T06:13:51;9.70;99.90
26503;DHT22;14177;51.520;6.764;2023-02-19T06:16:18;9.70;99.90
26503;DHT22;14177;51.520;6.764;2023-02-19T06:18:45;9.70;99.90
26503;DHT22;14177;51.520;6.764;2023-02-19T06:21:13;9.60;99.90
26503;DHT22;14177;51.520;6.764;2023-02-19T06:23:41;9.70;99.90
26503;DHT22;14177;51.520;6.764;2023-02-19T06:26:09;9.60;99.90
26503;DHT22;14177;51.520;6.764;2023-02-19T06:28:37;9.60;99.90
26503;DHT22;14177;51.520;6.764;2023-02-19T06:31:07;9.60;99.90
26503;DHT22;14177;51.520;6.764;2023-02-19T06:33:37;9.60;99.90
26503;DHT22;14177;51.520;6.764;2023-02-19T06:36:11;9.60;99.90
26503;DHT22;14177;51.520;6.764;2023-02-19T06:38:43;9.60;99.90
26503;DHT22;14177;51.520;6.764;2023-02-19T06:41:11;9.60;99.90
26503;DHT22;14177;51.520;6.764;2023-02-19T06:43:39;9.60;99.90
26503;DHT22;14177;51.520;6.764;2023-02-19T06:46:08;9.50;99.90
26503;DHT22;14177;51.520;6.764;2023-02-19T06:48:38;9.60;99.90
26503;DHT22;14177;51.520;6.764;2023-02-19T06:51:08;9.50;99.90
26503;DHT22;14177;51.520;6.764;2023-02-19T06:53:37;9.50;99.90
26503;DHT22;14177;51.520;6.764;2023-02-19T06:58:55;9.50;99.90
26503;DHT22;14177;51.520;6.764;2023-02-19T07:01:28;9.50;99.90
26503;DHT22;14177;51.520;6.764;2023-02-19T07:03:58;9.50;99.90
26503;DHT22;14177;51.520;6.764;2023-02-19T07:06:26;9.40;99.90
26503;DHT22;14177;51.520;6.764;2023-02-19T07:08:57;9.50;99.90
26503;DHT22;14177;51.520;6.764;2023-02-19T07:11:25;9.50;99.90
26503;DHT22;14177;51.520;6.764;2023-02-19T07:13:55;9.50;99.90
26503;DHT22;14177;51.520;6.764;2023-02-19T07:16:24;9.50;99.90
26503;DHT22;14177;51.520;6.764;2023-02-19T07:18:52;9.50;99.90
26503;DHT22;14177;51.520;6.764;2023-02-19T07:21:21;9.50;99.90
26503;DHT22;14177;51.520;6.764;2023-02-19T07:23:48;9.50;99.90
26503;DHT22;14177;51.520;6.764;2023-02-19T07:26:16;9.50;99.90
26503;DHT22;14177;51.520;6.764;2023-02-19T07:28:46;9.50;99.90
26503;DHT22;14177;51.520;6.764;2023-02-19T07:31:16;9.50;99.90
26503;DHT22;14177;51.520;6.764;2023-02-19T07:33:45;9.50;99.90
26503;DHT22;14177;51.520;6.764;2023-02-19T07:36:14;9.50;99.90
26503;DHT22;14177;51.520;6.764;2023-02-19T07:38:43;9.50;99.90
26503;DHT22;14177;51.520;6.764;2023-02-19T07:41:10;9.60;99.90
26503;DHT22;14177;51.520;6.764;2023-02-19T07:43:39;9.60;99.90
26503;DHT22;14177;51.520;6.764;2023-02-19T07:46:08;9.60;99.90
26503;DHT22;14177;51.520;6.764;2023-02-19T07:48:38;9.60;99.90
26503;DHT22;14177;51.520;6.764;2023-02-19T07:51:10;9.60;99.90
26503;DHT22;14177;51.520;6.764;2023-02-19T07:53:39;9.60;99.90
26503;DHT22;14177;51.520;6.764;2023-02-19T07:56:07;9.70;99.90
26503;DHT22;14177;51.520;6.764;2023-02-19T07:58:36;9.70;99.90
26503;DHT22;14177;51.520;6.764;2023-02-19T08:01:18;9.60;99.90
26503;DHT22;14177;51.520;6.764;2023-02-19T08:04:11;9.70;99.90
26503;DHT22;14177;51.520;6.764;2023-02-19T08:06:39;9.70;99.90
26503;DHT22;14177;51.520;6.764;2023-02-19T08:09:08;9.70;99.90
26503;DHT22;14177;51.520;6.764;2023-02-19T08:11:35;9.70;99.90
26503;DHT22;14177;51.520;6.764;2023-02-19T08:14:27;9.70;99.90
26503;DHT22;14177;51.520;6.764;2023-02-19T08:16:54;9.70;99.90
26503;DHT22;14177;51.520;6.764;2023-02-19T08:19:22;9.70;99.90
26503;DHT22;14177;51.520;6.764;2023-02-19T08:21:49;9.70;99.90
26503;DHT22;14177;51.520;6.764;2023-02-19T08:24:16;9.70;99.90
26503;DHT22;14177;51.520;6.764;2023-02-19T08:26:43;9.70;99.90
26503;DHT22;14177;51.520;6.764;2023-02-19T08:29:10;9.70;99.90
26503;DHT22;14177;51.520;6.764;2023-02-19T08:31:37;9.70;99.90
26503;DHT22;14177;51.520;6.764;2023-02-19T08:34:04;9.70;99.90
26503;DHT22;14177;51.520;6.764;2023-02-19T08:36:31;9.70;99.90
26503;DHT22;14177;51.520;6.764;2023-02-19T08:38:58;9.80;99.90
26503;DHT22;14177;51.520;6.764;2023-02-19T08:41:25;9.80;99.90
26503;DHT22;14177;51.520;6.764;2023-02-19T08:43:52;9.80;99.90
26503;DHT22;14177;51.520;6.764;2023-02-19T08:46:19;9.90;99.90
26503;DHT22;14177;51.520;6.764;2023-02-19T08:48:47;9.90;99.90
26503;DHT22;14177;51.520;6.764;2023-02-19T08:51:14;10.00;99.90
26503;DHT22;14177;51.520;6.764;2023-02-19T08:53:41;10.00;99.90
26503;DHT22;14177;51.520;6.764;2023-02-19T08:56:13;10.00;99.90
26503;DHT22;14177;51.520;6.764;2023-02-19T08:58:43;10.10;99.90
26503;DHT22;14177;51.520;6.764;2023-02-19T09:01:13;10.10;99.90
26503;DHT22;14177;51.520;6.764;2023-02-19T09:03:43;10.10;99.90
26503;DHT22;14177;51.520;6.764;2023-02-19T09:06:16;10.10;99.90
26503;DHT22;14177;51.520;6.764;2023-02-19T09:08:45;10.20;99.90
26503;DHT22;14177;51.520;6.764;2023-02-19T09:11:12;10.20;99.90
26503;DHT22;14177;51.520;6.764;2023-02-19T09:13:40;10.20;99.90
26503;DHT22;14177;51.520;6.764;2023-02-19T09:16:08;10.10;99.90
26503;DHT22;14177;51.520;6.764;2023-02-19T09:18:35;10.10;99.90
26503;DHT22;14177;51.520;6.764;2023-02-19T09:21:03;10.10;99.90
26503;DHT22;14177;51.520;6.764;2023-02-19T09:23:32;10.10;99.90
26503;DHT22;14177;51.520;6.764;2023-02-19T09:26:01;10.10;99.90
26503;DHT22;14177;51.520;6.764;2023-02-19T09:28:32;10.10;99.90
26503;DHT22;14177;51.520;6.764;2023-02-19T09:31:07;10.10;99.90
26503;DHT22;14177;51.520;6.764;2023-02-19T09:33:37;10.10;99.90
26503;DHT22;14177;51.520;6.764;2023-02-19T09:36:04;10.10;99.90
26503;DHT22;14177;51.520;6.764;2023-02-19T09:38:31;10.10;99.90
26503;DHT22;14177;51.520;6.764;2023-02-19T09:41:01;10.20;99.90
26503;DHT22;14177;51.520;6.764;2023-02-19T09:43:32;10.30;99.90
26503;DHT22;14177;51.520;6.764;2023-02-19T09:46:08;10.40;99.90
26503;DHT22;14177;51.520;6.764;2023-02-19T09:49:01;10.40;99.90
26503;DHT22;14177;51.520;6.764;2023-02-19T09:52:14;10.60;99.90
26503;DHT22;14177;51.520;6.764;2023-02-19T09:54:56;10.70;99.90
26503;DHT22;14177;51.520;6.764;2023-02-19T09:58:00;10.70;99.90
26503;DHT22;14177;51.520;6.764;2023-02-19T10:00:35;10.70;99.90
26503;DHT22;14177;51.520;6.764;2023-02-19T10:03:16;10.70;99.90
26503;DHT22;14177;51.520;6.764;2023-02-19T10:05:48;10.70;99.90
26503;DHT22;14177;51.520;6.764;2023-02-19T10:08:21;10.70;99.90
26503;DHT22;14177;51.520;6.764;2023-02-19T10:10:56;10.80;99.90
26503;DHT22;14177;51.520;6.764;2023-02-19T10:14:03;10.80;99.90
26503;DHT22;14177;51.520;6.764;2023-02-19T10:17:30;10.80;99.90
26503;DHT22;14177;51.520;6.764;2023-02-19T10:20:02;10.90;99.90
26503;DHT22;14177;51.520;6.764;2023-02-19T10:22:31;10.90;99.90
26503;DHT22;14177;51.520;6.764;2023-02-19T10:25:01;10.90;99.90
26503;DHT22;14177;51.520;6.764;2023-02-19T10:27:29;10.90;99.90
26503;DHT22;14177;51.520;6.764;2023-02-19T10:29:57;10.90;99.90
26503;DHT22;14177;51.520;6.764;2023-02-19T10:32:26;11.00;99.90
26503;DHT22;14177;51.520;6.764;2023-02-19T10:35:14;11.00;99.90
26503;DHT22;14177;51.520;6.764;2023-02-19T10:37:49;11.20;99.90
26503;DHT22;14177;51.520;6.764;2023-02-19T10:40:20;11.30;99.90
26503;DHT22;14177;51.520;6.764;2023-02-19T10:43:02;11.30;99.90
26503;DHT22;14177;51.520;6.764;2023-02-19T10:45:37;11.30;99.90
26503;DHT22;14177;51.520;6.764;2023-02-19T10:48:22;11.30;99.90
26503;DHT22;14177;51.520;6.764;2023-02-19T10:51:07;11.30;99.90
26503;DHT22;14177;51.520;6.764;2023-02-19T10:53:42;11.30;99.90
26503;DHT22;14177;51.520;6.764;2023-02-19T10:56:21;11.30;99.90
26503;DHT22;14177;51.520;6.764;2023-02-19T10:58:55;11.30;99.90
26503;DHT22;14177;51.520;6.764;2023-02-19T11:02:01;11.20;99.90
26503;DHT22;14177;51.520;6.764;2023-02-19T11:13:06;11.50;99.90
26503;DHT22;14177;51.520;6.764;2023-02-19T11:15:42;11.50;99.90
26503;DHT22;14177;51.520;6.764;2023-02-19T11:20:54;11.50;99.90
26503;DHT22;14177;51.520;6.764;2023-02-19T11:23:27;11.50;99.90
26503;DHT22;14177;51.520;6.764;2023-02-19T11:25:59;11.60;99.90
26503;DHT22;14177;51.520;6.764;2023-02-19T11:28:39;11.60;99.90
26503;DHT22;14177;51.520;6.764;2023-02-19T11:58:31;11.50;99.90
26503;DHT22;14177;51.520;6.764;2023-02-19T12:15:49;11.60;99.90
26503;DHT22;14177;51.520;6.764;2023-02-19T12:38:21;11.40;99.90
26503;DHT22;14177;51.520;6.764;2023-02-19T12:41:00;11.40;99.90
26503;DHT22;14177;51.520;6.764;2023-02-19T12:43:50;11.40;99.90
26503;DHT22;14177;51.520;6.764;2023-02-19T12:46:28;11.40;99.90
26503;DHT22;14177;51.520;6.764;2023-02-19T12:49:10;11.50;99.90
26503;DHT22;14177;51.520;6.764;2023-02-19T12:51:46;11.50;99.90
26503;DHT22;14177;51.520;6.764;2023-02-19T12:54:32;11.50;99.90
26503;DHT22;14177;51.520;6.764;2023-02-19T12:57:14;11.40;99.90
26503;DHT22;14177;51.520;6.764;2023-02-19T12:59:51;11.40;99.90
26503;DHT22;14177;51.520;6.764;2023-02-19T13:02:32;11.30;99.90
26503;DHT22;14177;51.520;6.764;2023-02-19T13:05:19;11.30;99.90
26503;DHT22;14177;51.520;6.764;2023-02-19T13:08:10;11.20;99.90
26503;DHT22;14177;51.520;6.764;2023-02-19T13:11:49;11.10;99.90
26503;DHT22;14177;51.520;6.764;2023-02-19T13:14:15;11.10;99.90
26503;DHT22;14177;51.520;6.764;2023-02-19T13:16:53;11.00;99.90
26503;DHT22;14177;51.520;6.764;2023-02-19T13:19:26;11.00;99.90
26503;DHT22;14177;51.520;6.764;2023-02-19T13:22:06;10.90;99.90
26503;DHT22;14177;51.520;6.764;2023-02-19T13:25:06;10.90;99.90
26503;DHT22;14177;51.520;6.764;2023-02-19T13:27:56;10.90;99.90
26503;DHT22;14177;51.520;6.764;2023-02-19T13:31:18;10.90;99.90
26503;DHT22;14177;51.520;6.764;2023-02-19T13:34:15;10.90;99.90
26503;DHT22;14177;51.520;6.764;2023-02-19T13:37:04;10.80;99.90
26503;DHT22;14177;51.520;6.764;2023-02-19T13:39:33;10.80;99.90
26503;DHT22;14177;51.520;6.764;2023-02-19T13:42:00;10.80;99.90
26503;DHT22;14177;51.520;6.764;2023-02-19T13:44:32;10.70;99.90
26503;DHT22;14177;51.520;6.764;2023-02-19T13:47:00;10.60;99.90
26503;DHT22;14177;51.520;6.764;2023-02-19T14:01:00;10.40;99.90
26503;DHT22;14177;51.520;6.764;2023-02-19T14:06:10;10.40;99.90
26503;DHT22;14177;51.520;6.764;2023-02-19T14:08:55;10.40;99.90
26503;DHT22;14177;51.520;6.764;2023-02-19T14:30:52;10.50;99.90
26503;DHT22;14177;51.520;6.764;2023-02-19T14:33:33;10.40;99.90
26503;DHT22;14177;51.520;6.764;2023-02-19T14:39:10;10.50;99.90
26503;DHT22;14177;51.520;6.764;2023-02-19T14:41:43;10.50;99.90
26503;DHT22;14177;51.520;6.764;2023-02-19T14:44:28;10.50;99.90
26503;DHT22;14177;51.520;6.764;2023-02-19T14:47:03;10.50;99.90
26503;DHT22;14177;51.520;6.764;2023-02-19T14:49:40;10.40;99.90
26503;DHT22;14177;51.520;6.764;2023-02-19T14:52:37;10.40;99.90
26503;DHT22;14177;51.520;6.764;2023-02-19T14:55:27;10.40;99.90
26503;DHT22;14177;51.520;6.764;2023-02-19T14:58:05;10.40;99.90
26503;DHT22;14177;51.520;6.764;2023-02-19T15:00:39;10.30;99.90
26503;DHT22;14177;51.520;6.764;2023-02-19T15:03:34;10.30;99.90
26503;DHT22;14177;51.520;6.764;2023-02-19T15:06:13;10.30;99.90
26503;DHT22;14177;51.520;6.764;2023-02-19T15:08:50;10.30;99.90
26503;DHT22;14177;51.520;6.764;2023-02-19T15:11:24;10.30;99.90
26503;DHT22;14177;51.520;6.764;2023-02-19T15:14:05;10.30;99.90
26503;DHT22;14177;51.520;6.764;2023-02-19T15:16:34;10.30;99.90
26503;DHT22;14177;51.520;6.764;2023-02-19T15:19:06;10.30;99.90
26503;DHT22;14177;51.520;6.764;2023-02-19T15:21:38;10.30;99.90
26503;DHT22;14177;51.520;6.764;2023-02-19T15:24:13;10.20;99.90
26503;DHT22;14177;51.520;6.764;2023-02-19T15:26:46;10.20;99.90
26503;DHT22;14177;51.520;6.764;2023-02-19T15:29:18;10.20;99.90
26503;DHT22;14177;51.520;6.764;2023-02-19T15:31:54;10.20;99.90
26503;DHT22;14177;51.520;6.764;2023-02-19T15:34:29;10.10;99.90
26503;DHT22;14177;51.520;6.764;2023-02-19T15:37:01;10.10;99.90
26503;DHT22;14177;51.520;6.764;2023-02-19T15:39:42;10.10;99.90
26503;DHT22;14177;51.520;6.764;2023-02-19T15:42:19;10.10;99.90
26503;DHT22;14177;51.520;6.764;2023-02-19T15:48:13;10.00;99.90
26503;DHT22;14177;51.520;6.764;2023-02-19T15:50:47;10.00;99.90
26503;DHT22;14177;51.520;6.764;2023-02-19T15:53:23;10.00;99.90
26503;DHT22;14177;51.520;6.764;2023-02-19T15:56:00;10.00;99.90
26503;DHT22;14177;51.520;6.764;2023-02-19T15:58:49;10.00;99.90
26503;DHT22;14177;51.520;6.764;2023-02-19T16:01:32;9.90;99.90
26503;DHT22;14177;51.520;6.764;2023-02-19T16:04:03;9.90;99.90
26503;DHT22;14177;51.520;6.764;2023-02-19T16:07:03;9.90;99.90
26503;DHT22;14177;51.520;6.764;2023-02-19T16:09:37;9.80;99.90
26503;DHT22;14177;51.520;6.764;2023-02-19T16:12:21;9.80;99.90
26503;DHT22;14177;51.520;6.764;2023-02-19T16:14:50;9.80;99.90
26503;DHT22;14177;51.520;6.764;2023-02-19T16:17:18;9.80;99.90
26503;DHT22;14177;51.520;6.764;2023-02-19T16:20:00;9.80;99.90
26503;DHT22;14177;51.520;6.764;2023-02-19T16:22:32;9.80;99.90
26503;DHT22;14177;51.520;6.764;2023-02-19T16:25:06;9.70;99.90
26503;DHT22;14177;51.520;6.764;2023-02-19T16:27:47;9.70;99.90
26503;DHT22;14177;51.520;6.764;2023-02-19T16:39:16;9.60;99.90
26503;DHT22;14177;51.520;6.764;2023-02-19T16:46:53;9.50;99.90
26503;DHT22;14177;51.520;6.764;2023-02-19T16:49:23;9.50;99.90
26503;DHT22;14177;51.520;6.764;2023-02-19T16:51:50;9.50;99.90
26503;DHT22;14177;51.520;6.764;2023-02-19T16:54:17;9.40;99.90
26503;DHT22;14177;51.520;6.764;2023-02-19T16:56:44;9.40;99.90
26503;DHT22;14177;51.520;6.764;2023-02-19T16:59:11;9.30;99.90
26503;DHT22;14177;51.520;6.764;2023-02-19T17:01:38;9.40;99.90
26503;DHT22;14177;51.520;6.764;2023-02-19T17:04:07;9.30;99.90
26503;DHT22;14177;51.520;6.764;2023-02-19T17:06:38;9.30;99.90
26503;DHT22;14177;51.520;6.764;2023-02-19T17:09:06;9.30;99.90
26503;DHT22;14177;51.520;6.764;2023-02-19T17:11:35;9.30;99.90
26503;DHT22;14177;51.520;6.764;2023-02-19T17:14:02;9.30;99.90
26503;DHT22;14177;51.520;6.764;2023-02-19T17:16:31;9.20;99.90
26503;DHT22;14177;51.520;6.764;2023-02-19T17:19:14;9.20;99.90
26503;DHT22;14177;51.520;6.764;2023-02-19T17:21:43;9.20;99.90
26503;DHT22;14177;51.520;6.764;2023-02-19T17:24:12;9.20;99.90
26503;DHT22;14177;51.520;6.764;2023-02-19T17:26:39;9.20;99.90
26503;DHT22;14177;51.520;6.764;2023-02-19T17:29:11;9.20;99.90
26503;DHT22;14177;51.520;6.764;2023-02-19T17:31:40;9.20;99.90
26503;DHT22;14177;51.520;6.764;2023-02-19T17:34:07;9.10;99.90
26503;DHT22;14177;51.520;6.764;2023-02-19T17:36:35;9.10;99.90
26503;DHT22;14177;51.520;6.764;2023-02-19T17:39:04;9.10;99.90
26503;DHT22;14177;51.520;6.764;2023-02-19T17:41:32;9.00;99.90
26503;DHT22;14177;51.520;6.764;2023-02-19T17:43:59;9.00;99.90
26503;DHT22;14177;51.520;6.764;2023-02-19T17:46:26;9.00;99.90
26503;DHT22;14177;51.520;6.764;2023-02-19T17:48:54;8.90;99.90
26503;DHT22;14177;51.520;6.764;2023-02-19T17:51:21;8.90;99.90
26503;DHT22;14177;51.520;6.764;2023-02-19T17:53:48;8.90;99.90
26503;DHT22;14177;51.520;6.764;2023-02-19T17:56:23;8.90;99.90
26503;DHT22;14177;51.520;6.764;2023-02-19T17:58:53;8.80;99.90
26503;DHT22;14177;51.520;6.764;2023-02-19T18:01:22;8.80;99.90
26503;DHT22;14177;51.520;6.764;2023-02-19T18:03:49;8.80;99.90
26503;DHT22;14177;51.520;6.764;2023-02-19T18:06:16;8.70;99.90
26503;DHT22;14177;51.520;6.764;2023-02-19T18:08:53;8.70;99.90
26503;DHT22;14177;51.520;6.764;2023-02-19T18:11:21;8.60;99.90
26503;DHT22;14177;51.520;6.764;2023-02-19T18:13:50;8.50;99.90
26503;DHT22;14177;51.520;6.764;2023-02-19T18:16:18;8.50;99.90
26503;DHT22;14177;51.520;6.764;2023-02-19T18:18:45;8.40;99.90
26503;DHT22;14177;51.520;6.764;2023-02-19T18:21:12;8.40;99.90
26503;DHT22;14177;51.520;6.764;2023-02-19T18:23:40;8.40;99.90
26503;DHT22;14177;51.520;6.764;2023-02-19T18:26:09;8.40;99.90
26503;DHT22;14177;51.520;6.764;2023-02-19T18:28:39;8.40;99.90
26503;DHT22;14177;51.520;6.764;2023-02-19T18:31:06;8.30;99.90
26503;DHT22;14177;51.520;6.764;2023-02-19T18:33:33;8.30;99.90
26503;DHT22;14177;51.520;6.764;2023-02-19T18:36:01;8.30;99.90
26503;DHT22;14177;51.520;6.764;2023-02-19T18:38:28;8.30;99.90
26503;DHT22;14177;51.520;6.764;2023-02-19T18:40:55;8.30;99.90
26503;DHT22;14177;51.520;6.764;2023-02-19T18:43:24;8.20;99.90
26503;DHT22;14177;51.520;6.764;2023-02-19T18:45:51;8.20;99.90
26503;DHT22;14177;51.520;6.764;2023-02-19T18:48:18;8.20;99.90
26503;DHT22;14177;51.520;6.764;2023-02-19T18:50:45;8.20;99.90
26503;DHT22;14177;51.520;6.764;2023-02-19T18:53:13;8.20;99.90
26503;DHT22;14177;51.520;6.764;2023-02-19T18:55:40;8.20;99.90
26503;DHT22;14177;51.520;6.764;2023-02-19T18:58:07;8.10;99.90
26503;DHT22;14177;51.520;6.764;2023-02-19T19:00:34;8.20;99.90
26503;DHT22;14177;51.520;6.764;2023-02-19T19:03:01;8.10;99.90
26503;DHT22;14177;51.520;6.764;2023-02-19T19:05:28;8.10;99.90
26503;DHT22;14177;51.520;6.764;2023-02-19T19:07:56;8.10;99.90
26503;DHT22;14177;51.520;6.764;2023-02-19T19:10:25;8.10;99.90